createdAt,value
2022-08-05T00:00:26.004Z,3.10
2022-08-05T00:06:32.794Z,4.10
2022-08-05T00:12:34.926Z,3.33
2022-08-05T00:18:57.048Z,4.30
2022-08-05T00:24:59.010Z,5.68
2022-08-05T00:31:04.278Z,5.28
2022-08-05T00:37:09.928Z,5.78
2022-08-05T00:43:15.347Z,6.72
2022-08-05T00:49:20.453Z,6.55
2022-08-05T00:55:23.217Z,8.02
2022-08-05T01:01:48.556Z,8.60
2022-08-05T01:08:40.068Z,8.43
2022-08-05T01:14:28.480Z,8.77
2022-08-05T01:20:40.727Z,10.32
2022-08-05T01:27:19.439Z,13.13
2022-08-05T01:33:35.401Z,13.43
2022-08-05T01:39:47.575Z,14.07
2022-08-05T01:45:56.303Z,14.25
2022-08-05T01:52:02.347Z,15.52
2022-08-05T01:58:40.933Z,15.65
2022-08-05T02:04:44.055Z,14.83
2022-08-05T02:10:56.178Z,15.35
2022-08-05T02:17:16.732Z,15.18
2022-08-05T02:23:36.141Z,14.98
2022-08-05T02:29:58.207Z,13.88
2022-08-05T02:36:04.585Z,13.60
2022-08-05T02:42:08.544Z,16.58
2022-08-05T02:48:12.457Z,17.45
2022-08-05T03:00:37.841Z,17.50
2022-08-05T03:06:54.482Z,16.58
2022-08-05T03:19:06.497Z,16.33
2022-08-05T03:25:32.612Z,16.80
2022-08-05T03:31:57.231Z,15.40
2022-08-05T03:38:02.587Z,16.58
2022-08-05T03:44:11.258Z,16.73
2022-08-05T03:50:13.539Z,17.48
2022-08-05T03:56:41.480Z,16.73
2022-08-05T04:02:57.788Z,17.65
2022-08-05T04:09:01.797Z,17.50
2022-08-05T04:15:03.936Z,17.20
2022-08-05T04:21:07.023Z,16.05
2022-08-05T04:27:13.851Z,16.55
2022-08-05T04:33:17.358Z,16.25
2022-08-05T04:39:40.118Z,16.05
2022-08-05T04:45:48.807Z,14.68
2022-08-05T04:51:50.886Z,12.70
2022-08-05T04:58:02.389Z,14.27
2022-08-05T05:04:04.683Z,12.45
2022-08-05T05:10:06.734Z,10.52
2022-08-05T05:16:08.567Z,10.55
2022-08-05T05:22:23.509Z,9.98
2022-08-05T05:28:27.497Z,10.07
2022-08-05T05:34:31.393Z,9.07
2022-08-05T05:40:33.614Z,9.05
2022-08-05T05:46:36.178Z,9.33
2022-08-05T05:52:42.421Z,9.27
2022-08-05T05:58:48.345Z,8.73
2022-08-05T06:04:52.101Z,8.18
2022-08-05T06:10:53.937Z,7.97
2022-08-05T06:16:55.796Z,7.50
2022-08-05T06:22:59.086Z,7.47
2022-08-05T06:29:06.056Z,7.75
2022-08-05T06:36:09.261Z,7.45
2022-08-05T06:41:44.567Z,7.15
2022-08-05T06:48:37.044Z,7.00
2022-08-05T06:54:08.093Z,7.25
2022-08-05T07:00:14.084Z,7.43
2022-08-05T07:06:24.090Z,7.78
2022-08-05T07:12:49.366Z,8.57
2022-08-05T07:18:51.110Z,9.27
2022-08-05T07:24:54.380Z,10.23
2022-08-05T07:30:56.270Z,11.73
2022-08-05T07:36:58.012Z,11.95
2022-08-05T07:42:59.832Z,12.98
2022-08-05T07:49:07.815Z,12.80
2022-08-05T07:55:22.267Z,11.70
2022-08-05T08:01:32.561Z,11.43
2022-08-05T08:07:39.415Z,8.85
2022-08-05T08:14:00.423Z,6.35
2022-08-05T08:20:44.605Z,6.10
2022-08-05T08:32:34.598Z,7.40
2022-08-05T08:38:41.579Z,9.38
2022-08-05T08:45:16.822Z,9.77
2022-08-05T08:52:02.110Z,10.32
2022-08-05T08:57:42.013Z,11.27
2022-08-05T09:03:52.889Z,13.35
2022-08-05T09:09:57.549Z,15.23
2022-08-05T09:16:01.147Z,12.95
2022-08-05T09:22:22.942Z,10.48
2022-08-05T09:28:32.031Z,9.35
2022-08-05T09:34:48.706Z,7.15
2022-08-05T09:40:52.302Z,8.57
2022-08-05T09:47:10.445Z,11.48
2022-08-05T09:53:25.706Z,10.57
2022-08-05T09:59:37.259Z,10.23
2022-08-05T10:05:41.730Z,8.52
2022-08-05T10:11:44.495Z,7.93
2022-08-05T10:18:16.847Z,7.85
2022-08-05T10:24:20.664Z,8.55
2022-08-05T10:32:46.671Z,8.77
2022-08-05T10:36:51.184Z,7.53
2022-08-05T10:42:56.331Z,6.45
2022-08-05T10:49:01.527Z,4.95
2022-08-05T10:55:07.930Z,4.00
2022-08-05T11:01:12.059Z,4.00
2022-08-05T11:07:18.656Z,3.30
2022-08-05T11:13:40.838Z,3.30
2022-08-05T11:20:11.182Z,3.17
2022-08-05T11:26:29.040Z,3.55
2022-08-05T11:32:35.088Z,3.33
2022-08-05T11:38:45.264Z,3.28
2022-08-05T11:44:53.961Z,3.67
2022-08-05T11:50:56.144Z,4.30
2022-08-05T11:56:59.931Z,4.00
2022-08-05T12:03:29.481Z,2.85
2022-08-05T12:09:52.697Z,3.08
2022-08-05T12:15:55.825Z,3.30
2022-08-05T12:21:57.816Z,3.08
2022-08-05T12:28:01.103Z,3.03
2022-08-05T12:34:06.975Z,3.20
2022-08-05T12:40:26.356Z,3.40
2022-08-05T12:46:31.207Z,3.80
2022-08-05T12:52:42.233Z,4.50
2022-08-05T12:58:53.593Z,4.60
2022-08-05T13:04:57.545Z,4.60
2022-08-05T13:11:01.667Z,4.70
2022-08-05T13:17:09.235Z,4.63
2022-08-05T13:23:11.845Z,4.90
2022-08-05T13:29:18.977Z,4.50
2022-08-05T13:35:31.454Z,4.18
2022-08-05T13:41:44.065Z,3.80
2022-08-05T13:48:08.558Z,3.00
2022-08-05T13:54:11.812Z,2.20
2022-08-05T14:00:14.930Z,2.05
2022-08-05T14:06:26.089Z,1.95
2022-08-05T14:12:32.663Z,2.03
2022-08-05T14:18:34.682Z,2.03
2022-08-05T14:24:40.154Z,2.08
2022-08-05T14:30:46.425Z,2.00
2022-08-05T14:36:48.613Z,1.95
2022-08-05T14:42:50.524Z,1.80
2022-08-05T14:48:53.852Z,2.30
2022-08-05T14:54:56.427Z,1.70
2022-08-05T15:01:00.320Z,1.50
2022-08-05T15:07:03.424Z,1.90
2022-08-05T15:13:05.784Z,1.83
2022-08-05T15:19:14.616Z,2.10
2022-08-05T15:25:41.164Z,1.80
2022-08-05T15:31:52.883Z,1.80
2022-08-05T15:38:33.779Z,1.85
2022-08-05T15:44:17.859Z,1.65
2022-08-05T15:50:19.712Z,1.63
2022-08-05T15:56:26.903Z,1.40
2022-08-05T16:02:32.980Z,1.23
2022-08-05T16:08:35.163Z,1.35
2022-08-05T16:14:36.979Z,0.93
2022-08-05T16:20:38.758Z,0.60
2022-08-05T16:26:58.280Z,0.43
2022-08-05T16:33:00.988Z,0.40
2022-08-05T16:39:02.992Z,0.40
2022-08-05T16:51:30.779Z,0.55
2022-08-05T16:57:53.193Z,0.60
2022-08-05T17:03:54.513Z,0.50
2022-08-05T17:09:57.364Z,0.40
2022-08-05T17:16:19.831Z,0.60
2022-08-05T17:22:25.486Z,0.50
2022-08-05T17:28:28.879Z,0.60
2022-08-05T17:34:32.192Z,0.50
2022-08-05T17:40:36.651Z,0.50
2022-08-05T17:46:41.804Z,0.50
2022-08-05T17:52:52.524Z,0.50
2022-08-05T17:58:55.492Z,0.60
2022-08-05T18:04:57.203Z,0.60
2022-08-05T18:11:00.876Z,0.40
2022-08-05T18:17:08.341Z,0.60
2022-08-05T18:23:31.685Z,0.60
2022-08-05T18:29:53.575Z,0.60
2022-08-05T18:36:03.571Z,0.60
2022-08-05T18:42:11.253Z,0.60
2022-08-05T18:48:30.546Z,0.50
2022-08-05T18:54:34.672Z,0.50
2022-08-05T19:00:36.406Z,0.50
2022-08-05T19:06:44.836Z,1.02
2022-08-05T19:12:48.320Z,0.77
2022-08-05T19:18:49.993Z,0.70
2022-08-05T19:24:55.850Z,0.53
2022-08-05T19:30:58.387Z,0.60
2022-08-05T19:37:00.771Z,0.60
2022-08-05T19:43:05.194Z,0.60
2022-08-05T19:49:08.030Z,0.70
2022-08-05T19:56:14.992Z,0.68
2022-08-05T20:01:36.338Z,0.77
2022-08-05T20:07:46.618Z,0.70
2022-08-05T20:13:58.883Z,0.57
2022-08-05T20:20:13.554Z,0.52
2022-08-05T20:26:17.355Z,0.50
2022-08-05T20:38:26.839Z,0.57
2022-08-05T20:44:30.863Z,0.52
2022-08-05T20:50:32.977Z,0.88
2022-08-05T20:56:41.936Z,0.60
2022-08-05T21:02:51.841Z,0.63
2022-08-05T21:08:53.951Z,0.60
2022-08-05T21:14:55.866Z,0.73
2022-08-05T21:21:00.463Z,0.80
2022-08-05T21:27:02.427Z,0.70
2022-08-05T21:33:07.287Z,0.70
2022-08-05T21:39:14.326Z,0.70
2022-08-05T21:45:24.915Z,0.70
2022-08-05T21:52:22.711Z,0.90
2022-08-05T21:58:01.871Z,0.73
2022-08-05T22:10:16.853Z,0.80
2022-08-05T22:16:39.599Z,0.60
2022-08-05T22:22:59.180Z,0.60
2022-08-05T22:29:00.937Z,0.50
2022-08-05T22:35:02.701Z,0.70
2022-08-05T22:41:09.530Z,0.80
2022-08-05T22:47:11.548Z,0.80
2022-08-05T22:53:15.954Z,0.60
2022-08-05T22:59:45.780Z,0.90
2022-08-05T23:05:40.301Z,0.50
2022-08-05T23:11:42.034Z,0.73
2022-08-05T23:18:01.232Z,0.60
2022-08-05T23:24:11.293Z,0.77
2022-08-05T23:30:13.599Z,0.60
2022-08-05T23:36:15.539Z,0.75
2022-08-05T23:42:23.469Z,1.00
2022-08-05T23:48:31.266Z,0.73
2022-08-05T23:54:38.461Z,0.70
